sensor_id;sensor_type;location;lat;lon;timestamp;pressure;altitude;pressure_sealevel;temperature;humidity
4449;BME280;2237;51.870;6.160;2023-07-22T00:00:38;101243.72;;;18.67;100.00
4449;BME280;2237;51.870;6.160;2023-07-22T00:03:04;101255.06;;;18.69;100.00
4449;BME280;2237;51.870;6.160;2023-07-22T00:05:31;101249.38;;;18.59;100.00
4449;BME280;2237;51.870;6.160;2023-07-22T00:07:57;101256.28;;;18.43;100.00
4449;BME280;2237;51.870;6.160;2023-07-22T00:10:23;101249.31;;;18.42;100.00
4449;BME280;2237;51.870;6.160;2023-07-22T00:12:50;101255.38;;;18.44;100.00
4449;BME280;2237;51.870;6.160;2023-07-22T00:15:17;101250.88;;;18.46;100.00
4449;BME280;2237;51.870;6.160;2023-07-22T00:17:43;101245.72;;;18.43;100.00
4449;BME280;2237;51.870;6.160;2023-07-22T00:20:11;101252.81;;;18.43;100.00
4449;BME280;2237;51.870;6.160;2023-07-22T00:22:38;101243.03;;;18.45;100.00
4449;BME280;2237;51.870;6.160;2023-07-22T00:25:07;101244.81;;;18.44;100.00
4449;BME280;2237;51.870;6.160;2023-07-22T00:27:37;101250.88;;;18.46;100.00
4449;BME280;2237;51.870;6.160;2023-07-22T00:30:08;101246.69;;;18.42;100.00
4449;BME280;2237;51.870;6.160;2023-07-22T00:32:35;101245.88;;;18.40;100.00
4449;BME280;2237;51.870;6.160;2023-07-22T00:35:06;101243.19;;;18.42;100.00
4449;BME280;2237;51.870;6.160;2023-07-22T00:37:33;101237.91;;;18.42;100.00
4449;BME280;2237;51.870;6.160;2023-07-22T00:40:01;101238.78;;;18.42;100.00
4449;BME280;2237;51.870;6.160;2023-07-22T00:42:28;101232.63;;;18.42;100.00
4449;BME280;2237;51.870;6.160;2023-07-22T00:44:54;101232.53;;;18.43;100.00
4449;BME280;2237;51.870;6.160;2023-07-22T00:47:21;101244.81;;;18.44;100.00
4449;BME280;2237;51.870;6.160;2023-07-22T00:49:49;101230.00;;;18.42;100.00
4449;BME280;2237;51.870;6.160;2023-07-22T00:52:15;101236.28;;;18.39;100.00
4449;BME280;2237;51.870;6.160;2023-07-22T00:54:42;101237.19;;;18.38;100.00
4449;BME280;2237;51.870;6.160;2023-07-22T00:57:09;101236.56;;;18.33;100.00
4449;BME280;2237;51.870;6.160;2023-07-22T00:59:36;101227.03;;;18.31;100.00
4449;BME280;2237;51.870;6.160;2023-07-22T01:02:02;101224.44;;;18.29;100.00
4449;BME280;2237;51.870;6.160;2023-07-22T01:04:29;101220.03;;;18.30;100.00
4449;BME280;2237;51.870;6.160;2023-07-22T01:06:55;101224.53;;;18.28;100.00
4449;BME280;2237;51.870;6.160;2023-07-22T01:09:22;101221.09;;;18.26;100.00
4449;BME280;2237;51.870;6.160;2023-07-22T01:11:49;101220.31;;;18.24;100.00
4449;BME280;2237;51.870;6.160;2023-07-22T01:14:15;101214.34;;;18.20;100.00
4449;BME280;2237;51.870;6.160;2023-07-22T01:16:42;101213.56;;;18.18;100.00
4449;BME280;2237;51.870;6.160;2023-07-22T01:19:09;101204.75;;;18.19;100.00
4449;BME280;2237;51.870;6.160;2023-07-22T01:21:37;101215.28;;;18.19;100.00
4449;BME280;2237;51.870;6.160;2023-07-22T01:24:04;101206.72;;;18.14;100.00
4449;BME280;2237;51.870;6.160;2023-07-22T01:26:30;101210.28;;;18.13;100.00
4449;BME280;2237;51.870;6.160;2023-07-22T01:29:04;101210.28;;;18.13;100.00
4449;BME280;2237;51.870;6.160;2023-07-22T01:31:34;101211.34;;;18.09;100.00
4449;BME280;2237;51.870;6.160;2023-07-22T01:34:01;101208.72;;;18.09;100.00
4449;BME280;2237;51.870;6.160;2023-07-22T01:36:28;101203.72;;;18.03;100.00
4449;BME280;2237;51.870;6.160;2023-07-22T01:38:55;101204.44;;;18.06;100.00
4449;BME280;2237;51.870;6.160;2023-07-22T01:41:21;101206.22;;;18.06;100.00
4449;BME280;2237;51.870;6.160;2023-07-22T01:43:47;101210.44;;;18.10;100.00
4449;BME280;2237;51.870;6.160;2023-07-22T01:46:15;101203.59;;;18.06;100.00
4449;BME280;2237;51.870;6.160;2023-07-22T01:48:41;101212.31;;;18.08;100.00
4449;BME280;2237;51.870;6.160;2023-07-22T01:51:08;101202.81;;;18.04;100.00
4449;BME280;2237;51.870;6.160;2023-07-22T01:53:35;101198.41;;;18.04;100.00
4449;BME280;2237;51.870;6.160;2023-07-22T01:56:01;101188.28;;;17.95;100.00
4449;BME280;2237;51.870;6.160;2023-07-22T01:58:28;101195.34;;;17.95;100.00
4449;BME280;2237;51.870;6.160;2023-07-22T02:00:54;101199.84;;;17.93;100.00
4449;BME280;2237;51.870;6.160;2023-07-22T02:03:21;101197.03;;;17.77;100.00
4449;BME280;2237;51.870;6.160;2023-07-22T02:05:47;101193.91;;;17.69;100.00
4449;BME280;2237;51.870;6.160;2023-07-22T02:08:14;101201.19;;;17.64;100.00
4449;BME280;2237;51.870;6.160;2023-07-22T02:10:40;101203.09;;;17.61;100.00
4449;BME280;2237;51.870;6.160;2023-07-22T02:13:06;101207.38;;;17.63;100.00
4449;BME280;2237;51.870;6.160;2023-07-22T02:15:33;101199.88;;;17.54;100.00
4449;BME280;2237;51.870;6.160;2023-07-22T02:18:00;101205.25;;;17.51;100.00
4449;BME280;2237;51.870;6.160;2023-07-22T02:20:27;101203.47;;;17.51;100.00
4449;BME280;2237;51.870;6.160;2023-07-22T02:22:55;101200.97;;;17.48;100.00
4449;BME280;2237;51.870;6.160;2023-07-22T02:25:21;101202.25;;;17.40;100.00
4449;BME280;2237;51.870;6.160;2023-07-22T02:27:48;101199.09;;;17.32;100.00
4449;BME280;2237;51.870;6.160;2023-07-22T02:30:15;101189.75;;;17.25;100.00
4449;BME280;2237;51.870;6.160;2023-07-22T02:32:41;101195.09;;;17.23;100.00
4449;BME280;2237;51.870;6.160;2023-07-22T02:35:08;101194.38;;;17.20;100.00
4449;BME280;2237;51.870;6.160;2023-07-22T02:37:37;101194.16;;;17.24;100.00
4449;BME280;2237;51.870;6.160;2023-07-22T02:40:04;101185.44;;;17.24;100.00
4449;BME280;2237;51.870;6.160;2023-07-22T02:42:34;101195.94;;;17.24;100.00
4449;BME280;2237;51.870;6.160;2023-07-22T02:45:02;101190.69;;;17.24;100.00
4449;BME280;2237;51.870;6.160;2023-07-22T02:47:30;101198.59;;;17.24;100.00
4449;BME280;2237;51.870;6.160;2023-07-22T02:49:56;101194.16;;;17.24;100.00
4449;BME280;2237;51.870;6.160;2023-07-22T02:52:22;101196.09;;;17.21;100.00
4449;BME280;2237;51.870;6.160;2023-07-22T02:55:09;101193.31;;;17.24;100.00
4449;BME280;2237;51.870;6.160;2023-07-22T02:57:40;101191.59;;;17.23;100.00
4449;BME280;2237;51.870;6.160;2023-07-22T03:00:07;101189.16;;;17.18;100.00
4449;BME280;2237;51.870;6.160;2023-07-22T03:02:38;101185.75;;;17.16;100.00
4449;BME280;2237;51.870;6.160;2023-07-22T03:05:06;101195.53;;;17.13;100.00
4449;BME280;2237;51.870;6.160;2023-07-22T03:07:35;101190.41;;;17.10;100.00
4449;BME280;2237;51.870;6.160;2023-07-22T03:10:01;101193.16;;;17.07;100.00
4449;BME280;2237;51.870;6.160;2023-07-22T03:12:28;101196.88;;;17.03;100.00
4449;BME280;2237;51.870;6.160;2023-07-22T03:14:55;101198.78;;;16.99;100.00
4449;BME280;2237;51.870;6.160;2023-07-22T03:17:21;101205.06;;;16.95;100.00
4449;BME280;2237;51.870;6.160;2023-07-22T03:19:48;101198.38;;;16.88;100.00
4449;BME280;2237;51.870;6.160;2023-07-22T03:22:16;101197.00;;;16.79;100.00
4449;BME280;2237;51.870;6.160;2023-07-22T03:24:43;101190.13;;;16.75;100.00
4449;BME280;2237;51.870;6.160;2023-07-22T03:27:11;101197.00;;;16.79;100.00
4449;BME280;2237;51.870;6.160;2023-07-22T03:29:38;101200.53;;;16.78;100.00
4449;BME280;2237;51.870;6.160;2023-07-22T03:32:05;101195.22;;;16.80;100.00
4449;BME280;2237;51.870;6.160;2023-07-22T03:34:31;101201.72;;;16.71;100.00
4449;BME280;2237;51.870;6.160;2023-07-22T03:36:58;101202.69;;;16.69;100.00
4449;BME280;2237;51.870;6.160;2023-07-22T03:39:25;101204.41;;;16.70;100.00
4449;BME280;2237;51.870;6.160;2023-07-22T03:41:51;101206.88;;;16.74;100.00
4449;BME280;2237;51.870;6.160;2023-07-22T03:44:18;101200.75;;;16.74;100.00
4449;BME280;2237;51.870;6.160;2023-07-22T03:46:44;101201.72;;;16.71;100.00
4449;BME280;2237;51.870;6.160;2023-07-22T03:49:11;101200.88;;;16.71;100.00
4449;BME280;2237;51.870;6.160;2023-07-22T03:51:37;101207.25;;;16.65;100.00
4449;BME280;2237;51.870;6.160;2023-07-22T03:54:03;101198.78;;;16.57;100.00
4449;BME280;2237;51.870;6.160;2023-07-22T03:56:30;101209.06;;;16.63;100.00
4449;BME280;2237;51.870;6.160;2023-07-22T03:58:56;101202.97;;;16.63;100.00
4449;BME280;2237;51.870;6.160;2023-07-22T04:01:22;101205.38;;;16.67;100.00
4449;BME280;2237;51.870;6.160;2023-07-22T04:03:49;101194.00;;;16.67;100.00
4449;BME280;2237;51.870;6.160;2023-07-22T04:06:15;101198.50;;;16.65;100.00
4449;BME280;2237;51.870;6.160;2023-07-22T04:08:42;101205.63;;;16.61;100.00
4449;BME280;2237;51.870;6.160;2023-07-22T04:11:08;101207.41;;;16.61;100.00
4449;BME280;2237;51.870;6.160;2023-07-22T04:13:35;101202.97;;;16.63;100.00
4449;BME280;2237;51.870;6.160;2023-07-22T04:16:01;101199.41;;;16.64;100.00
4449;BME280;2237;51.870;6.160;2023-07-22T04:18:28;101204.53;;;16.67;100.00
4449;BME280;2237;51.870;6.160;2023-07-22T04:21:00;101194.00;;;16.67;100.00
4449;BME280;2237;51.870;6.160;2023-07-22T04:23:27;101195.59;;;16.71;100.00
4449;BME280;2237;51.870;6.160;2023-07-22T04:25:53;101194.50;;;16.76;100.00
4449;BME280;2237;51.870;6.160;2023-07-22T04:28:20;101200.13;;;16.67;100.00
4449;BME280;2237;51.870;6.160;2023-07-22T04:30:55;101203.28;;;16.75;100.00
4449;BME280;2237;51.870;6.160;2023-07-22T04:33:22;101200.88;;;16.71;100.00
4449;BME280;2237;51.870;6.160;2023-07-22T04:35:49;101206.38;;;16.65;100.00
4449;BME280;2237;51.870;6.160;2023-07-22T04:38:15;101207.94;;;16.69;100.00
4449;BME280;2237;51.870;6.160;2023-07-22T04:40:44;101204.41;;;16.70;100.00
4449;BME280;2237;51.870;6.160;2023-07-22T04:43:11;101200.34;;;16.63;100.00
4449;BME280;2237;51.870;6.160;2023-07-22T04:45:38;101202.28;;;16.58;100.00
4449;BME280;2237;51.870;6.160;2023-07-22T04:48:07;101207.16;;;16.67;100.00
4449;BME280;2237;51.870;6.160;2023-07-22T04:50:34;101212.00;;;16.77;100.00
4449;BME280;2237;51.870;6.160;2023-07-22T04:53:00;101210.94;;;16.81;100.00
4449;BME280;2237;51.870;6.160;2023-07-22T04:55:26;101216.72;;;16.89;100.00
4449;BME280;2237;51.870;6.160;2023-07-22T04:57:56;101211.81;;;17.02;100.00
4449;BME280;2237;51.870;6.160;2023-07-22T05:00:22;101210.56;;;17.11;100.00
4449;BME280;2237;51.870;6.160;2023-07-22T05:02:49;101224.22;;;17.19;100.00
4449;BME280;2237;51.870;6.160;2023-07-22T05:05:15;101212.16;;;17.15;100.00
4449;BME280;2237;51.870;6.160;2023-07-22T05:07:42;101217.66;;;17.09;100.00
4449;BME280;2237;51.870;6.160;2023-07-22T05:10:09;101224.88;;;17.04;100.00
4449;BME280;2237;51.870;6.160;2023-07-22T05:12:39;101222.94;;;17.09;100.00
4449;BME280;2237;51.870;6.160;2023-07-22T05:15:06;101218.22;;;17.15;100.00
4449;BME280;2237;51.870;6.160;2023-07-22T05:17:33;101212.41;;;17.09;100.00
4449;BME280;2237;51.870;6.160;2023-07-22T05:19:59;101216.41;;;17.17;100.00
4449;BME280;2237;51.870;6.160;2023-07-22T05:22:26;101214.94;;;17.10;100.00
4449;BME280;2237;51.870;6.160;2023-07-22T05:24:52;101228.72;;;17.17;100.00
4449;BME280;2237;51.870;6.160;2023-07-22T05:27:18;101225.34;;;17.13;100.00
4449;BME280;2237;51.870;6.160;2023-07-22T05:29:45;101223.25;;;17.01;100.00
4449;BME280;2237;51.870;6.160;2023-07-22T05:32:11;101229.06;;;17.09;100.00
4449;BME280;2237;51.870;6.160;2023-07-22T05:34:58;101222.59;;;17.16;100.00
4449;BME280;2237;51.870;6.160;2023-07-22T05:37:24;101225.94;;;17.20;100.00
4449;BME280;2237;51.870;6.160;2023-07-22T05:39:51;101216.41;;;17.17;100.00
4449;BME280;2237;51.870;6.160;2023-07-22T05:42:17;101222.06;;;17.08;100.00
4449;BME280;2237;51.870;6.160;2023-07-22T05:44:44;101225.59;;;17.27;100.00
4449;BME280;2237;51.870;6.160;2023-07-22T05:47:10;101220.72;;;17.38;100.00
4449;BME280;2237;51.870;6.160;2023-07-22T05:49:37;101225.34;;;17.33;100.00
4449;BME280;2237;51.870;6.160;2023-07-22T05:52:04;101224.94;;;17.42;100.00
4449;BME280;2237;51.870;6.160;2023-07-22T05:54:30;101234.22;;;17.51;100.00
4449;BME280;2237;51.870;6.160;2023-07-22T05:56:57;101231.97;;;17.42;100.00
4449;BME280;2237;51.870;6.160;2023-07-22T05:59:23;101235.06;;;17.51;100.00
4449;BME280;2237;51.870;6.160;2023-07-22T06:01:50;101222.03;;;17.48;100.00
4449;BME280;2237;51.870;6.160;2023-07-22T06:04:16;101221.91;;;17.51;100.00
4449;BME280;2237;51.870;6.160;2023-07-22T06:06:43;101227.16;;;17.72;100.00
4449;BME280;2237;51.870;6.160;2023-07-22T06:09:10;101222.66;;;17.74;100.00
4449;BME280;2237;51.870;6.160;2023-07-22T06:11:37;101223.47;;;17.76;100.00
4449;BME280;2237;51.870;6.160;2023-07-22T06:14:03;101223.66;;;17.71;100.00
4449;BME280;2237;51.870;6.160;2023-07-22T06:16:30;101225.66;;;17.66;100.00
4449;BME280;2237;51.870;6.160;2023-07-22T06:18:56;101227.94;;;17.74;100.00
4449;BME280;2237;51.870;6.160;2023-07-22T06:21:22;101209.94;;;17.83;100.00
4449;BME280;2237;51.870;6.160;2023-07-22T06:23:49;101214.50;;;17.98;100.00
4449;BME280;2237;51.870;6.160;2023-07-22T06:26:16;101213.56;;;18.18;100.00
4449;BME280;2237;51.870;6.160;2023-07-22T06:28:42;101213.28;;;18.24;100.00
4449;BME280;2237;51.870;6.160;2023-07-22T06:31:08;101202.84;;;18.40;100.00
4449;BME280;2237;51.870;6.160;2023-07-22T06:33:35;101207.94;;;18.61;100.00
4449;BME280;2237;51.870;6.160;2023-07-22T06:36:02;101203.94;;;18.72;100.00
4449;BME280;2237;51.870;6.160;2023-07-22T06:38:29;101201.38;;;18.87;100.00
4449;BME280;2237;51.870;6.160;2023-07-22T06:40:55;101199.81;;;19.00;100.00
4449;BME280;2237;51.870;6.160;2023-07-22T06:43:22;101210.59;;;19.13;100.00
4449;BME280;2237;51.870;6.160;2023-07-22T06:45:48;101216.69;;;18.98;100.00
4449;BME280;2237;51.870;6.160;2023-07-22T06:48:15;101209.91;;;18.92;100.00
4449;BME280;2237;51.870;6.160;2023-07-22T06:50:47;101208.44;;;18.87;100.00
4449;BME280;2237;51.870;6.160;2023-07-22T06:53:14;101210.00;;;18.91;100.00
4449;BME280;2237;51.870;6.160;2023-07-22T06:55:51;101201.75;;;18.80;100.00
4449;BME280;2237;51.870;6.160;2023-07-22T06:58:21;101197.66;;;18.74;100.00
4449;BME280;2237;51.870;6.160;2023-07-22T07:00:55;101197.97;;;18.85;100.00
4449;BME280;2237;51.870;6.160;2023-07-22T07:03:22;101201.47;;;18.86;100.00
4449;BME280;2237;51.870;6.160;2023-07-22T07:05:56;101196.47;;;19.14;100.00
4449;BME280;2237;51.870;6.160;2023-07-22T07:08:23;101200.78;;;19.49;100.00
4449;BME280;2237;51.870;6.160;2023-07-22T07:10:50;101188.31;;;19.84;100.00
4449;BME280;2237;51.870;6.160;2023-07-22T07:13:17;101194.22;;;20.05;100.00
4449;BME280;2237;51.870;6.160;2023-07-22T07:15:48;101196.41;;;20.12;100.00
4449;BME280;2237;51.870;6.160;2023-07-22T07:18:17;101195.84;;;20.07;100.00
4449;BME280;2237;51.870;6.160;2023-07-22T07:20:44;101194.47;;;20.16;100.00
4449;BME280;2237;51.870;6.160;2023-07-22T07:23:12;101192.09;;;20.27;100.00
4449;BME280;2237;51.870;6.160;2023-07-22T07:25:39;101202.16;;;20.05;100.00
4449;BME280;2237;51.870;6.160;2023-07-22T07:28:05;101202.66;;;19.96;100.00
4449;BME280;2237;51.870;6.160;2023-07-22T07:30:31;101205.22;;;19.82;100.00
4449;BME280;2237;51.870;6.160;2023-07-22T07:32:58;101198.91;;;19.84;100.00
4449;BME280;2237;51.870;6.160;2023-07-22T07:35:25;101196.50;;;19.95;100.00
4449;BME280;2237;51.870;6.160;2023-07-22T07:37:52;101193.25;;;20.06;100.00
4449;BME280;2237;51.870;6.160;2023-07-22T07:40:18;101194.81;;;20.10;100.00
4449;BME280;2237;51.870;6.160;2023-07-22T07:42:44;101192.97;;;20.27;100.00
4449;BME280;2237;51.870;6.160;2023-07-22T07:45:11;101170.38;;;20.20;100.00
4449;BME280;2237;51.870;6.160;2023-07-22T07:47:38;101189.19;;;20.32;100.00
4449;BME280;2237;51.870;6.160;2023-07-22T07:50:05;101191.06;;;20.45;100.00
4449;BME280;2237;51.870;6.160;2023-07-22T07:52:31;101184.56;;;20.51;100.00
4449;BME280;2237;51.870;6.160;2023-07-22T07:54:58;101187.75;;;20.71;100.00
4449;BME280;2237;51.870;6.160;2023-07-22T07:57:24;101190.03;;;20.77;100.00
4449;BME280;2237;51.870;6.160;2023-07-22T07:59:50;101192.88;;;20.74;100.00
4449;BME280;2237;51.870;6.160;2023-07-22T08:02:17;101194.03;;;20.84;100.00
4449;BME280;2237;51.870;6.160;2023-07-22T08:04:43;101195.41;;;21.06;100.00
4449;BME280;2237;51.870;6.160;2023-07-22T08:07:10;101191.75;;;21.22;100.00
4449;BME280;2237;51.870;6.160;2023-07-22T08:09:36;101189.84;;;21.10;100.00
4449;BME280;2237;51.870;6.160;2023-07-22T08:12:03;101188.94;;;20.96;100.00
4449;BME280;2237;51.870;6.160;2023-07-22T08:14:29;101194.31;;;21.10;100.00
4449;BME280;2237;51.870;6.160;2023-07-22T08:16:56;101191.38;;;21.14;100.00
4449;BME280;2237;51.870;6.160;2023-07-22T08:19:22;101190.94;;;21.36;100.00
4449;BME280;2237;51.870;6.160;2023-07-22T08:21:49;101196.50;;;21.60;100.00
4449;BME280;2237;51.870;6.160;2023-07-22T08:24:15;101200.19;;;21.85;100.00
4449;BME280;2237;51.870;6.160;2023-07-22T08:26:42;101197.81;;;22.09;100.00
4449;BME280;2237;51.870;6.160;2023-07-22T08:29:08;101199.41;;;22.12;100.00
4449;BME280;2237;51.870;6.160;2023-07-22T08:31:35;101198.97;;;22.32;100.00
4449;BME280;2237;51.870;6.160;2023-07-22T08:34:02;101193.06;;;22.14;100.00
4449;BME280;2237;51.870;6.160;2023-07-22T08:36:29;101194.44;;;22.34;100.00
4449;BME280;2237;51.870;6.160;2023-07-22T08:38:56;101191.78;;;22.34;100.00
4449;BME280;2237;51.870;6.160;2023-07-22T08:41:22;101197.28;;;22.31;100.00
4449;BME280;2237;51.870;6.160;2023-07-22T08:43:52;101197.97;;;22.47;100.00
4449;BME280;2237;51.870;6.160;2023-07-22T08:46:22;101204.78;;;22.51;100.00
4449;BME280;2237;51.870;6.160;2023-07-22T08:48:53;101205.66;;;22.51;100.00
4449;BME280;2237;51.870;6.160;2023-07-22T08:51:21;101205.19;;;22.45;100.00
4449;BME280;2237;51.870;6.160;2023-07-22T08:53:50;101206.94;;;22.32;100.00
4449;BME280;2237;51.870;6.160;2023-07-22T08:56:20;101201.59;;;22.46;99.85
4449;BME280;2237;51.870;6.160;2023-07-22T08:58:48;101198.16;;;22.44;99.54
4449;BME280;2237;51.870;6.160;2023-07-22T09:01:15;101204.78;;;22.51;96.99
4449;BME280;2237;51.870;6.160;2023-07-22T09:03:44;101194.38;;;22.48;97.67
4449;BME280;2237;51.870;6.160;2023-07-22T09:06:11;101206.59;;;22.77;97.14
4449;BME280;2237;51.870;6.160;2023-07-22T09:08:38;101197.91;;;22.75;97.40
4449;BME280;2237;51.870;6.160;2023-07-22T09:11:05;101198.88;;;22.99;96.69
4449;BME280;2237;51.870;6.160;2023-07-22T09:13:33;101209.06;;;22.80;95.75
4449;BME280;2237;51.870;6.160;2023-07-22T09:16:00;101212.38;;;22.96;94.36
4449;BME280;2237;51.870;6.160;2023-07-22T09:18:27;101205.56;;;23.05;93.35
4449;BME280;2237;51.870;6.160;2023-07-22T09:20:54;101202.84;;;23.32;93.64
4449;BME280;2237;51.870;6.160;2023-07-22T09:23:37;101206.13;;;23.35;92.40
4449;BME280;2237;51.870;6.160;2023-07-22T09:26:12;101216.66;;;23.12;92.49
4449;BME280;2237;51.870;6.160;2023-07-22T09:31:14;101204.88;;;23.16;91.03
4449;BME280;2237;51.870;6.160;2023-07-22T09:33:41;101205.41;;;23.33;89.95
4449;BME280;2237;51.870;6.160;2023-07-22T09:36:10;101203.38;;;23.37;89.02
4449;BME280;2237;51.870;6.160;2023-07-22T09:38:37;101202.22;;;23.16;89.20
4449;BME280;2237;51.870;6.160;2023-07-22T09:41:04;101198.16;;;23.23;90.84
4449;BME280;2237;51.870;6.160;2023-07-22T09:43:31;101189.03;;;23.39;89.13
4449;BME280;2237;51.870;6.160;2023-07-22T09:46:06;101195.84;;;23.56;87.88
4449;BME280;2237;51.870;6.160;2023-07-22T09:48:53;101194.66;;;23.60;84.69
4449;BME280;2237;51.870;6.160;2023-07-22T09:51:20;101195.50;;;23.23;85.30
4449;BME280;2237;51.870;6.160;2023-07-22T09:53:51;101193.97;;;22.93;85.89
4449;BME280;2237;51.870;6.160;2023-07-22T09:56:24;101185.59;;;22.87;87.24
4449;BME280;2237;51.870;6.160;2023-07-22T09:58:55;101190.88;;;22.74;85.81
4449;BME280;2237;51.870;6.160;2023-07-22T10:01:23;101186.88;;;23.06;85.14
4449;BME280;2237;51.870;6.160;2023-07-22T10:03:54;101189.00;;;23.14;84.12
4449;BME280;2237;51.870;6.160;2023-07-22T10:06:26;101182.97;;;23.25;80.82
4449;BME280;2237;51.870;6.160;2023-07-22T10:08:56;101184.97;;;23.34;77.89
4449;BME280;2237;51.870;6.160;2023-07-22T10:11:25;101179.88;;;23.18;77.49
4449;BME280;2237;51.870;6.160;2023-07-22T10:13:53;101185.00;;;23.21;75.26
4449;BME280;2237;51.870;6.160;2023-07-22T10:16:22;101193.69;;;23.23;74.87
4449;BME280;2237;51.870;6.160;2023-07-22T10:18:49;101191.56;;;23.28;76.50
4449;BME280;2237;51.870;6.160;2023-07-22T10:21:16;101195.22;;;23.40;78.14
4449;BME280;2237;51.870;6.160;2023-07-22T10:23:44;101186.47;;;23.38;78.47
4449;BME280;2237;51.870;6.160;2023-07-22T10:26:12;101181.69;;;23.43;81.04
4449;BME280;2237;51.870;6.160;2023-07-22T10:28:40;101177.25;;;23.92;78.42
4449;BME280;2237;51.870;6.160;2023-07-22T10:31:08;101179.38;;;24.00;72.93
4449;BME280;2237;51.870;6.160;2023-07-22T10:33:35;101176.88;;;24.22;70.46
4449;BME280;2237;51.870;6.160;2023-07-22T10:38:32;101170.88;;;24.31;65.77
4449;BME280;2237;51.870;6.160;2023-07-22T10:40:59;101181.53;;;24.31;64.93
4449;BME280;2237;51.870;6.160;2023-07-22T10:43:33;101183.97;;;24.34;61.35
4449;BME280;2237;51.870;6.160;2023-07-22T10:46:09;101178.28;;;24.39;62.02
4449;BME280;2237;51.870;6.160;2023-07-22T10:48:38;101177.66;;;24.35;62.74
4449;BME280;2237;51.870;6.160;2023-07-22T10:51:09;101174.91;;;24.71;62.02
4449;BME280;2237;51.870;6.160;2023-07-22T10:53:43;101170.69;;;24.69;60.47
4449;BME280;2237;51.870;6.160;2023-07-22T10:56:15;101173.78;;;24.63;63.39
4449;BME280;2237;51.870;6.160;2023-07-22T11:04:24;101170.19;;;24.99;62.89
4449;BME280;2237;51.870;6.160;2023-07-22T11:07:08;101166.44;;;25.01;60.86
4449;BME280;2237;51.870;6.160;2023-07-22T11:09:35;101169.63;;;25.28;59.38
4449;BME280;2237;51.870;6.160;2023-07-22T11:12:11;101160.19;;;25.47;56.32
4449;BME280;2237;51.870;6.160;2023-07-22T11:14:48;101155.81;;;25.79;55.78
4449;BME280;2237;51.870;6.160;2023-07-22T11:17:29;101148.19;;;25.63;52.87
4449;BME280;2237;51.870;6.160;2023-07-22T11:19:57;101157.06;;;25.53;53.44
4449;BME280;2237;51.870;6.160;2023-07-22T11:22:24;101151.94;;;25.27;54.69
4449;BME280;2237;51.870;6.160;2023-07-22T11:24:50;101149.03;;;25.31;56.48
4449;BME280;2237;51.870;6.160;2023-07-22T11:27:17;101157.03;;;25.42;55.28
4449;BME280;2237;51.870;6.160;2023-07-22T11:29:44;101147.66;;;25.14;55.80
4449;BME280;2237;51.870;6.160;2023-07-22T11:32:17;101144.91;;;25.26;56.42
4449;BME280;2237;51.870;6.160;2023-07-22T11:34:44;101135.69;;;25.42;55.00
4449;BME280;2237;51.870;6.160;2023-07-22T11:37:11;101137.38;;;25.76;54.29
4449;BME280;2237;51.870;6.160;2023-07-22T11:39:37;101123.03;;;25.99;53.75
4449;BME280;2237;51.870;6.160;2023-07-22T11:42:05;101138.28;;;26.19;53.35
4449;BME280;2237;51.870;6.160;2023-07-22T11:44:32;101137.06;;;26.23;53.30
4449;BME280;2237;51.870;6.160;2023-07-22T11:49:37;101123.44;;;26.58;51.09
4449;BME280;2237;51.870;6.160;2023-07-22T11:52:06;101123.13;;;26.72;51.82
4449;BME280;2237;51.870;6.160;2023-07-22T11:54:34;101126.09;;;26.58;53.06
4449;BME280;2237;51.870;6.160;2023-07-22T11:59:50;101128.19;;;26.55;52.64
4449;BME280;2237;51.870;6.160;2023-07-22T12:02:19;101117.13;;;27.01;51.33
4449;BME280;2237;51.870;6.160;2023-07-22T12:07:26;101115.81;;;26.74;50.90
4449;BME280;2237;51.870;6.160;2023-07-22T12:09:57;101111.75;;;26.59;51.24
4449;BME280;2237;51.870;6.160;2023-07-22T12:12:44;101117.59;;;26.53;51.45
4449;BME280;2237;51.870;6.160;2023-07-22T12:15:17;101113.03;;;25.58;54.15
4449;BME280;2237;51.870;6.160;2023-07-22T12:17:47;101119.69;;;25.42;55.08
4449;BME280;2237;51.870;6.160;2023-07-22T12:20:15;101119.94;;;25.61;52.35
4449;BME280;2237;51.870;6.160;2023-07-22T12:22:42;101109.19;;;26.05;52.64
4449;BME280;2237;51.870;6.160;2023-07-22T12:25:09;101107.59;;;26.46;49.57
4449;BME280;2237;51.870;6.160;2023-07-22T12:27:37;101108.56;;;26.02;48.07
4449;BME280;2237;51.870;6.160;2023-07-22T12:30:05;101106.09;;;25.78;49.76
4449;BME280;2237;51.870;6.160;2023-07-22T12:32:32;101096.16;;;25.69;50.69
4449;BME280;2237;51.870;6.160;2023-07-22T12:34:58;101093.25;;;25.83;49.70
4449;BME280;2237;51.870;6.160;2023-07-22T12:37:25;101078.13;;;26.36;48.62
4449;BME280;2237;51.870;6.160;2023-07-22T12:39:51;101080.66;;;27.00;47.73
4449;BME280;2237;51.870;6.160;2023-07-22T12:42:18;101079.09;;;26.97;46.06
4449;BME280;2237;51.870;6.160;2023-07-22T12:44:44;101074.22;;;26.61;46.39
4449;BME280;2237;51.870;6.160;2023-07-22T12:47:11;101081.25;;;26.62;46.47
4449;BME280;2237;51.870;6.160;2023-07-22T12:49:38;101093.31;;;26.98;46.02
4449;BME280;2237;51.870;6.160;2023-07-22T12:52:05;101086.69;;;27.22;43.66
4449;BME280;2237;51.870;6.160;2023-07-22T12:54:35;101084.63;;;27.05;44.02
4449;BME280;2237;51.870;6.160;2023-07-22T12:57:02;101091.16;;;26.29;43.53
4449;BME280;2237;51.870;6.160;2023-07-22T12:59:28;101094.31;;;26.12;43.14
4449;BME280;2237;51.870;6.160;2023-07-22T13:01:55;101094.09;;;26.26;43.00
4449;BME280;2237;51.870;6.160;2023-07-22T13:04:21;101093.53;;;26.32;42.92
4449;BME280;2237;51.870;6.160;2023-07-22T13:06:49;101093.84;;;26.71;42.99
4449;BME280;2237;51.870;6.160;2023-07-22T13:09:16;101097.50;;;26.90;40.73
4449;BME280;2237;51.870;6.160;2023-07-22T13:11:42;101087.84;;;26.99;41.56
4449;BME280;2237;51.870;6.160;2023-07-22T13:14:08;101092.06;;;26.39;41.41
4449;BME280;2237;51.870;6.160;2023-07-22T13:16:35;101095.91;;;26.26;42.68
4449;BME280;2237;51.870;6.160;2023-07-22T13:19:01;101092.28;;;26.89;41.68
4449;BME280;2237;51.870;6.160;2023-07-22T13:21:29;101094.03;;;26.79;42.01
4449;BME280;2237;51.870;6.160;2023-07-22T13:23:56;101087.50;;;26.30;42.52